Time;durP1;ratioP1;P1;durP2;ratioP2;P2;SDS_P1;SDS_P2;PMS_P1;PMS_P2;Temp;Humidity;BMP_temperature;BMP_pressure;BME280_temperature;BME280_humidity;BME280_pressure;Samples;Min_cycle;Max_cycle;Signal;HPM_P1;HPM_P2
2021/05/22 00:01:24;;;;;;;23.85;21.17;;;22.60;51.10;;;;;;4810822;54;21023;-36
2021/05/22 00:06:25;;;;;;;24.80;20.77;;;22.60;51.10;;;;;;4794554;54;21004;-43
2021/05/22 00:11:26;;;;;;;23.08;20.45;;;22.60;51.20;;;;;;4799477;54;21464;-37
2021/05/22 00:16:27;;;;;;;22.52;20.00;;;22.60;51.10;;;;;;4809747;54;21015;-37
2021/05/22 00:21:28;;;;;;;21.95;19.65;;;22.60;51.10;;;;;;4824489;54;20999;-37
2021/05/22 00:26:29;;;;;;;21.23;19.02;;;22.50;51.10;;;;;;4818237;54;21488;-39
2021/05/22 00:31:30;;;;;;;22.77;19.95;;;22.60;51.20;;;;;;4839531;54;21058;-36
2021/05/22 00:36:31;;;;;;;22.45;19.50;;;22.50;51.20;;;;;;4797315;54;21016;-37
2021/05/22 00:41:32;;;;;;;21.73;18.42;;;22.60;51.10;;;;;;4820490;54;21082;-39
2021/05/22 00:46:33;;;;;;;23.23;20.15;;;22.50;51.10;;;;;;4794757;58;21035;-38
2021/05/22 00:51:34;;;;;;;21.05;18.70;;;22.50;51.10;;;;;;4820800;54;21451;-37
2021/05/22 00:56:35;;;;;;;21.12;18.83;;;22.50;51.10;;;;;;4854405;54;21044;-38
2021/05/22 01:01:36;;;;;;;21.77;18.70;;;22.50;51.10;;;;;;4799899;54;22184;-34
2021/05/22 01:06:37;;;;;;;19.83;17.70;;;22.60;51.20;;;;;;4811248;54;21034;-37
2021/05/22 01:12:03;;;;;;;20.55;18.37;;;22.60;51.20;;;;;;4820036;54;20995;-39
2021/05/22 01:17:04;;;;;;;20.10;17.90;;;22.50;51.10;;;;;;4813169;54;22315;-39
2021/05/22 01:22:05;;;;;;;19.58;17.55;;;22.50;51.10;;;;;;4793658;58;21006;-42
2021/05/22 01:27:06;;;;;;;22.02;18.27;;;22.50;51.10;;;;;;4837340;54;21027;-37
2021/05/22 01:32:08;;;;;;;19.23;17.20;;;22.50;51.10;;;;;;4812631;54;21678;-38
2021/05/22 01:37:09;;;;;;;21.42;18.23;;;22.50;51.10;;;;;;4819344;54;21698;-37
2021/05/22 01:42:10;;;;;;;19.35;16.67;;;22.50;51.10;;;;;;4811987;54;21079;-40
2021/05/22 01:47:12;;;;;;;19.05;17.00;;;22.50;51.10;;;;;;4794500;55;21015;-37
2021/05/22 01:52:17;;;;;;;19.73;17.62;;;22.50;51.10;;;;;;4811499;54;21109;-36
2021/05/22 01:57:18;;;;;;;18.05;15.90;;;22.50;51.20;;;;;;4810733;54;21130;-39
2021/05/22 02:02:21;;;;;;;18.77;16.77;;;22.50;51.10;;;;;;4793426;55;21106;-37
2021/05/22 02:07:23;;;;;;;17.58;15.70;;;22.50;51.10;;;;;;4875360;54;21465;-38
2021/05/22 02:12:25;;;;;;;18.10;15.90;;;22.50;51.10;;;;;;4794633;58;20992;-37
2021/05/22 02:17:27;;;;;;;17.73;15.82;;;22.50;51.10;;;;;;4796004;54;21532;-38
2021/05/22 02:22:27;;;;;;;17.10;15.38;;;22.50;51.10;;;;;;4823069;54;21071;-39
2021/05/22 02:27:28;;;;;;;19.00;16.75;;;22.50;51.10;;;;;;4804684;54;21095;-38
2021/05/22 02:32:30;;;;;;;16.85;15.05;;;22.50;51.10;;;;;;4842397;54;21470;-39
2021/05/22 02:37:32;;;;;;;17.98;15.73;;;22.50;51.10;;;;;;4827618;54;21083;-44
2021/05/22 02:42:33;;;;;;;17.95;15.50;;;22.50;51.10;;;;;;4796072;54;21114;-38
2021/05/22 02:47:38;;;;;;;16.60;14.93;;;22.50;51.10;;;;;;4809248;54;21031;-39
2021/05/22 02:52:40;;;;;;;17.80;15.00;;;22.50;51.10;;;;;;4810803;54;20991;-38
2021/05/22 02:57:43;;;;;;;17.17;15.38;;;22.50;51.10;;;;;;4844776;54;21142;-38
2021/05/22 03:02:44;;;;;;;16.27;14.35;;;22.50;51.10;;;;;;4838588;54;21386;-38
2021/05/22 03:07:45;;;;;;;17.60;15.75;;;22.50;51.10;;;;;;4820609;54;21050;-39
2021/05/22 03:12:46;;;;;;;16.33;14.55;;;22.50;51.10;;;;;;4794914;58;21058;-39
2021/05/22 03:17:47;;;;;;;16.27;14.45;;;22.50;51.10;;;;;;4806710;54;21079;-38
2021/05/22 03:22:48;;;;;;;15.15;13.55;;;22.50;51.00;;;;;;4793501;55;21897;-32
2021/05/22 03:27:49;;;;;;;15.50;13.70;;;22.50;51.70;;;;;;4812852;54;21062;-36
2021/05/22 03:32:49;;;;;;;15.77;13.88;;;22.50;51.00;;;;;;4820625;54;21015;-36
2021/05/22 03:37:52;;;;;;;16.85;15.00;;;22.50;50.90;;;;;;4817845;54;21091;-36
2021/05/22 03:42:53;;;;;;;15.65;13.95;;;22.50;51.00;;;;;;4804153;54;21949;-35
2021/05/22 03:47:53;;;;;;;15.68;13.95;;;22.50;51.00;;;;;;4795297;58;21118;-38
2021/05/22 03:52:54;;;;;;;14.45;13.02;;;22.50;50.50;;;;;;4864770;54;21103;-35
2021/05/22 03:57:55;;;;;;;15.88;14.27;;;22.50;50.90;;;;;;4811298;54;21116;-38
2021/05/22 04:02:56;;;;;;;15.20;13.07;;;22.50;50.90;;;;;;4792852;58;21007;-37
2021/05/22 04:07:57;;;;;;;13.40;12.00;;;22.50;50.90;;;;;;4813229;54;20995;-43
2021/05/22 04:12:58;;;;;;;14.90;12.88;;;22.50;50.90;;;;;;4816600;54;21480;-37
2021/05/22 04:17:59;;;;;;;14.43;12.88;;;22.50;50.90;;;;;;4798682;54;20983;-36
2021/05/22 04:23:00;;;;;;;13.93;12.45;;;22.50;50.90;;;;;;4797990;54;21043;-35
2021/05/22 04:28:00;;;;;;;13.93;12.43;;;22.50;50.90;;;;;;4821229;54;21039;-40
2021/05/22 04:33:02;;;;;;;12.52;11.30;;;22.50;50.90;;;;;;4794051;55;20975;-38
2021/05/22 04:38:03;;;;;;;13.75;12.20;;;22.50;50.90;;;;;;4839193;54;21055;-36
2021/05/22 04:43:04;;;;;;;15.00;12.05;;;22.50;50.90;;;;;;4840734;54;21027;-39
2021/05/22 04:48:05;;;;;;;13.55;12.15;;;22.50;51.00;;;;;;4821259;54;21493;-38
2021/05/22 04:53:06;;;;;;;12.05;10.57;;;22.50;51.70;;;;;;4825143;54;20990;-37
2021/05/22 04:58:07;;;;;;;12.98;11.10;;;22.50;51.00;;;;;;4802033;54;21082;-37
2021/05/22 05:03:08;;;;;;;12.13;10.88;;;22.40;51.10;;;;;;4808452;54;21553;-39
2021/05/22 05:08:09;;;;;;;12.45;11.15;;;22.50;51.00;;;;;;4800837;54;21023;-37
2021/05/22 05:13:10;;;;;;;12.10;10.82;;;22.50;51.00;;;;;;4818684;54;21074;-37
2021/05/22 05:18:10;;;;;;;12.23;11.02;;;22.40;51.00;;;;;;4794290;54;21083;-35
2021/05/22 05:23:11;;;;;;;12.05;10.85;;;22.50;51.10;;;;;;4822544;54;21063;-39
2021/05/22 05:28:12;;;;;;;13.32;11.75;;;22.40;51.00;;;;;;4794790;58;21027;-34
2021/05/22 05:33:13;;;;;;;14.10;10.57;;;22.50;51.00;;;;;;4818823;54;20991;-38
2021/05/22 05:38:14;;;;;;;12.15;10.95;;;22.40;50.80;;;;;;4802623;54;21074;-36
2021/05/22 05:43:18;;;;;;;13.10;11.73;;;22.50;50.90;;;;;;4818833;54;21453;-38
2021/05/22 05:48:18;;;;;;;11.82;10.48;;;22.50;51.60;;;;;;4807875;54;21056;-40
2021/05/22 05:53:19;;;;;;;12.13;10.48;;;22.40;50.80;;;;;;4798501;54;21035;-39
2021/05/22 05:58:20;;;;;;;13.27;10.80;;;22.40;50.80;;;;;;4795163;55;21090;-34
2021/05/22 06:03:28;;;;;;;11.40;9.90;;;22.40;50.80;;;;;;4823139;54;21034;-34
2021/05/22 06:08:29;;;;;;;12.63;10.80;;;22.50;50.90;;;;;;4827024;54;21612;-38
2021/05/22 06:13:33;;;;;;;11.63;10.27;;;22.40;50.80;;;;;;4815448;54;20976;-38
2021/05/22 06:18:37;;;;;;;11.25;10.15;;;22.50;50.80;;;;;;4818442;54;21526;-39
2021/05/22 06:23:38;;;;;;;12.07;10.40;;;22.40;50.70;;;;;;4812090;54;21047;-39
2021/05/22 06:28:39;;;;;;;11.32;10.13;;;22.50;50.80;;;;;;4805058;54;21573;-40
2021/05/22 06:33:40;;;;;;;11.77;10.15;;;22.40;50.70;;;;;;4826680;54;21074;-41
2021/05/22 06:38:40;;;;;;;11.32;10.07;;;22.40;50.70;;;;;;4796670;54;21050;-39
2021/05/22 06:43:41;;;;;;;12.32;10.77;;;22.50;50.70;;;;;;4795801;54;21074;-46
2021/05/22 06:48:42;;;;;;;12.25;10.02;;;22.40;50.60;;;;;;4794118;58;21457;-40
2021/05/22 06:53:43;;;;;;;12.48;10.85;;;22.50;50.70;;;;;;4797487;54;21055;-39
2021/05/22 06:58:44;;;;;;;13.38;10.90;;;22.50;50.70;;;;;;4814803;54;21908;-38
2021/05/22 07:03:45;;;;;;;11.88;10.63;;;22.40;50.70;;;;;;4808605;54;20984;-33
2021/05/22 07:08:45;;;;;;;13.15;10.95;;;22.50;50.70;;;;;;4816582;54;20992;-38
2021/05/22 07:13:46;;;;;;;13.48;11.00;;;22.50;50.70;;;;;;4829751;54;21458;-36
2021/05/22 07:18:47;;;;;;;12.18;10.85;;;22.40;50.60;;;;;;4799837;54;21066;-39
2021/05/22 07:23:48;;;;;;;13.30;11.30;;;22.50;50.70;;;;;;4811090;54;21015;-34
2021/05/22 07:28:49;;;;;;;12.50;11.15;;;22.40;50.60;;;;;;4799873;54;21019;-36
2021/05/22 07:33:51;;;;;;;13.20;11.23;;;22.40;50.60;;;;;;4800931;54;21478;-40
2021/05/22 07:38:52;;;;;;;14.27;11.35;;;22.40;51.20;;;;;;4804919;54;21493;-39
2021/05/22 07:43:53;;;;;;;13.98;11.70;;;22.40;50.60;;;;;;4798280;54;21007;-36
2021/05/22 07:48:54;;;;;;;15.50;11.65;;;22.40;50.50;;;;;;4794278;54;21066;-36
2021/05/22 07:53:55;;;;;;;13.27;11.48;;;22.50;51.10;;;;;;4801404;54;21462;-36
2021/05/22 07:58:56;;;;;;;13.15;11.40;;;22.50;50.40;;;;;;4817910;54;21095;-36
2021/05/22 08:03:56;;;;;;;14.05;11.35;;;22.50;50.40;;;;;;4792904;58;21158;-47
2021/05/22 08:08:57;;;;;;;14.93;12.18;;;22.50;50.40;;;;;;4802755;54;21075;-40
2021/05/22 08:13:58;;;;;;;16.02;12.77;;;22.40;50.30;;;;;;4819665;54;21063;-37
2021/05/22 08:18:59;;;;;;;14.32;12.77;;;22.40;50.30;;;;;;4803074;54;21485;-40
2021/05/22 08:24:00;;;;;;;17.58;13.50;;;22.50;50.30;;;;;;4796740;54;20992;-47
2021/05/22 08:29:04;;;;;;;14.55;13.05;;;22.50;50.30;;;;;;4831625;54;21003;-38
2021/05/22 08:34:05;;;;;;;16.23;13.27;;;22.50;50.20;;;;;;4834663;54;21039;-46
2021/05/22 08:39:06;;;;;;;16.73;13.20;;;22.40;50.20;;;;;;4800204;54;21469;-39
2021/05/22 08:44:07;;;;;;;15.75;12.93;;;22.50;50.20;;;;;;4793191;54;21114;-48
2021/05/22 08:49:10;;;;;;;17.87;13.93;;;22.50;50.80;;;;;;4794535;55;21007;-39
2021/05/22 08:54:11;;;;;;;16.73;13.98;;;22.50;50.20;;;;;;4840837;54;21047;-44
2021/05/22 08:59:15;;;;;;;17.65;14.10;;;22.40;50.10;;;;;;4818703;54;20999;-39
2021/05/22 09:04:16;;;;;;;16.87;14.75;;;22.40;50.10;;;;;;4793947;58;20996;-44
2021/05/22 09:09:17;;;;;;;17.42;14.05;;;22.40;50.00;;;;;;4794399;58;21529;-36
2021/05/22 09:14:40;;;;;;;18.95;15.10;;;22.50;50.10;;;;;;4828700;54;20995;-39
2021/05/22 09:19:42;;;;;;;19.50;15.05;;;22.50;50.10;;;;;;4803428;54;21023;-42
2021/05/22 09:25:03;;;;;;;18.40;15.30;;;22.50;50.10;;;;;;4845789;54;21105;-38
2021/05/22 09:30:14;;;;;;;19.45;16.25;;;22.50;50.10;;;;;;4803173;54;20983;-37
2021/05/22 09:35:17;;;;;;;20.65;15.77;;;22.50;50.10;;;;;;4810180;54;21019;-38
2021/05/22 09:40:33;;;;;;;20.00;16.42;;;22.50;50.00;;;;;;4796686;54;21529;-49
2021/05/22 09:45:41;;;;;;;18.55;15.38;;;22.50;50.00;;;;;;4823571;54;21015;-37
2021/05/22 09:50:52;;;;;;;19.12;15.60;;;22.50;50.00;;;;;;4824425;54;21047;-36
2021/05/22 09:56:19;;;;;;;19.55;15.40;;;22.50;50.00;;;;;;4816040;54;20990;-38
2021/05/22 10:02:03;;;;;;;19.33;16.62;;;22.50;50.00;;;;;;4799486;54;20991;-40
2021/05/22 10:07:03;;;;;;;21.05;17.30;;;22.50;50.00;;;;;;4799565;54;21062;-39
2021/05/22 10:12:15;;;;;;;18.83;15.93;;;22.50;50.00;;;;;;4795309;54;21114;-35
2021/05/22 10:17:16;;;;;;;22.10;16.92;;;22.50;49.90;;;;;;4806514;54;21465;-40
2021/05/22 10:22:19;;;;;;;19.30;16.67;;;22.50;49.90;;;;;;4793262;58;21580;-36
2021/05/22 10:27:21;;;;;;;21.15;17.02;;;22.50;49.90;;;;;;4812900;54;21071;-39
2021/05/22 10:32:26;;;;;;;21.90;16.83;;;22.50;50.50;;;;;;4794232;55;21446;-39
2021/05/22 10:37:48;;;;;;;22.37;16.20;;;22.50;49.90;;;;;;4795356;54;21019;-44
2021/05/22 10:42:56;;;;;;;22.20;16.90;;;22.50;50.00;;;;;;4796589;54;21346;-43
2021/05/22 10:48:01;;;;;;;;;;;22.50;49.90;;;;;;4797707;58;21046;-37
2021/05/22 10:56:58;;;;;;;20.85;16.85;;;22.50;49.90;;;;;;4810937;54;20357;-36
2021/05/22 11:02:00;;;;;;;21.58;17.05;;;22.50;50.00;;;;;;4793509;58;21471;-42
2021/05/22 11:07:17;;;;;;;21.73;17.45;;;22.50;49.90;;;;;;4814910;54;21091;-43
2021/05/22 11:13:00;;;;;;;;;;;22.50;50.00;;;;;;4808222;54;21027;-38
2021/05/22 11:18:01;;;;;;;21.98;17.23;;;22.50;49.90;;;;;;4809843;54;20103;-47
2021/05/22 11:23:03;;;;;;;21.02;17.55;;;22.50;49.90;;;;;;4795483;54;21559;-37
2021/05/22 11:28:05;;;;;;;23.30;17.95;;;22.50;49.90;;;;;;4802807;54;21071;-46
2021/05/22 11:33:11;;;;;;;22.77;16.98;;;22.50;49.90;;;;;;4806475;54;21514;-34
2021/05/22 11:38:34;;;;;;;21.85;17.35;;;22.50;50.00;;;;;;4796203;54;21617;-46
2021/05/22 11:43:37;;;;;;;23.65;17.52;;;22.50;50.00;;;;;;4842138;54;21581;-39
2021/05/22 11:48:53;;;;;;;22.90;17.35;;;22.50;50.00;;;;;;4799054;54;21486;-41
2021/05/22 11:54:02;;;;;;;22.85;17.90;;;22.50;50.00;;;;;;4817103;54;21466;-37
2021/05/22 11:59:05;;;;;;;22.13;17.98;;;22.50;50.00;;;;;;4801351;54;20987;-35
2021/05/22 12:04:11;;;;;;;22.10;17.85;;;22.50;50.00;;;;;;4793065;58;21477;-42
2021/05/22 12:09:20;;;;;;;22.05;18.30;;;22.50;50.00;;;;;;4841956;54;20980;-35
2021/05/22 12:14:21;;;;;;;22.87;16.85;;;22.50;50.00;;;;;;4794778;58;20971;-38
2021/05/22 12:19:22;;;;;;;21.27;16.70;;;22.50;50.00;;;;;;4794197;58;21196;-49
2021/05/22 12:24:23;;;;;;;20.37;16.12;;;22.50;50.00;;;;;;4797695;54;21074;-36
2021/05/22 12:29:29;;;;;;;23.73;17.50;;;22.50;50.00;;;;;;4794649;58;20991;-39
2021/05/22 12:34:32;;;;;;;23.15;17.67;;;22.50;50.00;;;;;;4856875;54;21513;-40
2021/05/22 12:39:46;;;;;;;22.35;17.77;;;22.50;50.10;;;;;;4800304;54;21011;-38
2021/05/22 12:44:52;;;;;;;19.98;16.95;;;22.50;50.10;;;;;;4797100;54;21608;-34
2021/05/22 12:49:58;;;;;;;23.48;17.33;;;22.50;50.10;;;;;;4810974;54;21176;-38
2021/05/22 12:54:59;;;;;;;22.58;18.33;;;22.50;50.10;;;;;;4794013;58;21497;-38
2021/05/22 13:00:09;;;;;;;20.90;17.12;;;22.50;50.10;;;;;;4821562;54;21130;-38
2021/05/22 13:05:23;;;;;;;22.25;17.40;;;22.50;50.10;;;;;;4811750;54;22196;-40
2021/05/22 13:10:42;;;;;;;20.65;17.52;;;22.50;50.10;;;;;;4829130;54;21505;-46
2021/05/22 13:15:45;;;;;;;21.92;17.95;;;22.50;50.20;;;;;;4842166;54;21008;-39
2021/05/22 13:20:57;;;;;;;22.20;17.70;;;22.50;50.20;;;;;;4805160;54;21039;-39
2021/05/22 13:25:59;;;;;;;20.25;16.77;;;22.50;50.20;;;;;;4797232;54;21122;-39
2021/05/22 13:31:42;;;;;;;23.15;17.73;;;22.50;50.20;;;;;;4795005;54;21050;-37
2021/05/22 13:36:44;;;;;;;20.58;17.67;;;22.50;50.30;;;;;;4815343;54;21585;-35
2021/05/22 13:41:46;;;;;;;20.77;17.30;;;22.50;50.30;;;;;;4794480;58;21494;-39
2021/05/22 13:46:49;;;;;;;22.95;18.08;;;22.60;50.40;;;;;;4794228;58;21011;-38
2021/05/22 13:51:50;;;;;;;21.05;18.12;;;22.50;50.30;;;;;;4805138;54;21418;-39
2021/05/22 13:56:51;;;;;;;22.60;18.52;;;22.50;50.40;;;;;;4802611;54;21015;-33
2021/05/22 14:01:51;;;;;;;25.45;19.52;;;22.50;50.40;;;;;;4793482;55;21008;-37
2021/05/22 14:06:53;;;;;;;23.50;19.58;;;22.50;50.50;;;;;;4802214;54;21010;-40
2021/05/22 14:11:54;;;;;;;23.87;18.80;;;22.50;50.50;;;;;;4796443;54;21058;-38
2021/05/22 14:16:55;;;;;;;22.75;18.45;;;22.50;50.50;;;;;;4815915;54;21066;-40
2021/05/22 14:21:57;;;;;;;22.62;19.10;;;22.50;50.60;;;;;;4793433;58;21031;-40
2021/05/22 14:26:58;;;;;;;24.00;19.23;;;22.60;50.60;;;;;;4794397;55;20995;-41
2021/05/22 14:31:58;;;;;;;21.65;18.55;;;22.50;50.60;;;;;;4795000;58;21015;-39
2021/05/22 14:36:59;;;;;;;24.77;20.50;;;22.50;50.60;;;;;;4811930;54;21034;-41
2021/05/22 14:42:00;;;;;;;24.63;19.30;;;22.50;50.70;;;;;;4793846;58;21609;-34
2021/05/22 14:47:01;;;;;;;22.60;18.02;;;22.50;50.70;;;;;;4803591;54;21085;-45
2021/05/22 14:52:02;;;;;;;22.27;19.02;;;22.50;50.80;;;;;;4795116;54;21060;-42
2021/05/22 14:57:04;;;;;;;22.92;18.73;;;22.50;50.90;;;;;;4798241;54;21103;-47
2021/05/22 15:02:05;;;;;;;25.25;20.80;;;22.60;50.90;;;;;;4805653;54;21600;-41
2021/05/22 15:07:06;;;;;;;22.65;19.10;;;22.50;50.90;;;;;;4795567;54;20984;-48
2021/05/22 15:12:08;;;;;;;24.75;19.80;;;22.50;50.90;;;;;;4794917;55;21454;-37
2021/05/22 15:17:08;;;;;;;22.45;18.52;;;22.50;50.90;;;;;;4813835;54;21014;-47
2021/05/22 15:22:09;;;;;;;23.00;19.58;;;22.60;50.90;;;;;;4793660;58;21485;-42
2021/05/22 15:27:10;;;;;;;24.02;19.35;;;22.60;50.90;;;;;;4801184;54;21086;-49
2021/05/22 15:32:11;;;;;;;22.05;19.17;;;22.50;50.90;;;;;;4797660;54;21529;-37
2021/05/22 15:37:12;;;;;;;22.85;18.87;;;22.50;51.00;;;;;;4796764;54;21133;-38
2021/05/22 15:42:14;;;;;;;22.52;19.10;;;22.50;51.00;;;;;;4817139;54;21501;-42
2021/05/22 15:47:22;;;;;;;21.95;18.62;;;22.60;51.10;;;;;;4812056;54;21003;-38
2021/05/22 15:57:52;;;;;;;24.12;18.80;;;22.60;51.80;;;;;;4794477;54;21492;-38
2021/05/22 16:09:47;;;;;;;20.92;17.95;;;22.60;51.20;;;;;;4797143;54;21170;-44
2021/05/22 16:14:47;;;;;;;25.88;20.25;;;22.60;51.30;;;;;;4833276;54;21514;-39
2021/05/22 16:19:48;;;;;;;22.13;19.17;;;22.60;51.30;;;;;;4825798;54;21091;-38
2021/05/22 16:24:49;;;;;;;23.20;19.17;;;22.60;51.30;;;;;;4793924;58;21052;-45
2021/05/22 16:29:50;;;;;;;23.40;19.58;;;22.60;51.40;;;;;;4817340;54;21043;-35
2021/05/22 16:34:51;;;;;;;24.60;20.37;;;22.60;51.40;;;;;;4816451;54;21401;-37
2021/05/22 16:39:52;;;;;;;23.65;19.80;;;22.60;51.50;;;;;;4817662;54;20991;-38
2021/05/22 16:44:53;;;;;;;21.90;18.67;;;22.60;51.50;;;;;;4796086;54;21046;-35
2021/05/22 16:49:54;;;;;;;24.05;19.45;;;22.60;51.50;;;;;;4793631;55;21019;-37
2021/05/22 16:54:55;;;;;;;21.02;18.62;;;22.60;51.60;;;;;;4815646;54;22140;-37
2021/05/22 16:59:58;;;;;;;23.77;18.80;;;22.60;51.60;;;;;;4804186;54;21334;-40
2021/05/22 17:04:59;;;;;;;21.80;18.42;;;22.60;51.60;;;;;;4807248;54;21027;-35
2021/05/22 17:10:00;;;;;;;22.23;18.58;;;22.60;51.70;;;;;;4799998;54;21034;-43
2021/05/22 17:15:00;;;;;;;23.25;19.42;;;22.60;51.70;;;;;;4813202;54;21075;-38
2021/05/22 17:20:02;;;;;;;22.37;18.25;;;22.60;51.90;;;;;;4837974;54;21062;-36
2021/05/22 17:25:12;;;;;;;24.00;20.23;;;22.60;51.70;;;;;;4806519;54;20999;-47
2021/05/22 17:30:19;;;;;;;24.23;19.77;;;22.60;51.80;;;;;;4794873;55;21627;-44
2021/05/22 17:35:20;;;;;;;23.43;19.90;;;22.60;51.80;;;;;;4796366;54;21051;-36
2021/05/22 17:40:24;;;;;;;26.05;20.92;;;22.60;51.80;;;;;;4795481;54;21079;-34
2021/05/22 17:45:27;;;;;;;25.73;20.83;;;22.60;51.90;;;;;;4794478;58;21011;-37
2021/05/22 17:50:28;;;;;;;24.92;21.08;;;22.60;51.90;;;;;;4814296;54;21062;-36
2021/05/22 17:55:29;;;;;;;25.15;21.08;;;22.60;52.00;;;;;;4810067;54;21023;-32
2021/05/22 18:00:32;;;;;;;27.60;21.20;;;22.60;52.10;;;;;;4823431;54;21043;-39
2021/05/22 18:05:33;;;;;;;26.73;21.62;;;22.60;52.00;;;;;;4802451;54;20967;-37
2021/05/22 18:10:35;;;;;;;25.37;21.27;;;22.60;52.10;;;;;;4834288;54;21458;-41
2021/05/22 18:15:36;;;;;;;26.48;21.45;;;22.60;52.10;;;;;;4808116;54;21441;-44
2021/05/22 18:20:37;;;;;;;25.30;21.52;;;22.60;52.20;;;;;;4794080;58;21541;-41
2021/05/22 18:25:38;;;;;;;26.70;21.73;;;22.60;52.20;;;;;;4799649;54;21047;-46
2021/05/22 18:30:39;;;;;;;27.50;21.85;;;22.60;52.20;;;;;;4817456;54;21087;-39
2021/05/22 18:35:41;;;;;;;25.58;21.67;;;22.60;52.30;;;;;;4819123;54;21028;-47
2021/05/22 18:40:42;;;;;;;27.70;22.40;;;22.60;52.30;;;;;;4794607;55;21960;-38
2021/05/22 18:45:43;;;;;;;26.08;21.60;;;22.60;52.30;;;;;;4794033;58;21079;-44
2021/05/22 18:50:43;;;;;;;23.62;20.30;;;22.60;52.40;;;;;;4838645;54;21050;-32
2021/05/22 18:55:44;;;;;;;25.65;21.35;;;22.60;52.50;;;;;;4815499;54;21000;-34
2021/05/22 19:00:46;;;;;;;24.33;19.83;;;22.60;52.40;;;;;;4808931;54;21082;-36
2021/05/22 19:05:48;;;;;;;24.52;20.45;;;22.60;52.50;;;;;;4806369;54;21438;-38
2021/05/22 19:10:49;;;;;;;29.05;22.65;;;22.60;52.50;;;;;;4805675;54;21055;-44
2021/05/22 19:15:49;;;;;;;24.48;20.55;;;22.60;52.60;;;;;;4803159;54;21070;-48
2021/05/22 19:20:50;;;;;;;26.75;20.73;;;22.60;52.50;;;;;;4794876;54;21078;-38
2021/05/22 19:25:51;;;;;;;24.17;19.87;;;22.60;52.50;;;;;;4822181;54;21448;-38
2021/05/22 19:30:52;;;;;;;25.40;20.00;;;22.60;52.60;;;;;;4847445;54;20999;-38
2021/05/22 19:35:53;;;;;;;25.58;20.52;;;22.60;52.60;;;;;;4793254;58;21031;-36
2021/05/22 19:40:54;;;;;;;23.30;19.75;;;22.60;52.60;;;;;;4821851;54;21019;-38
2021/05/22 19:45:55;;;;;;;25.25;19.15;;;22.60;52.60;;;;;;4814778;54;21558;-38
2021/05/22 19:50:55;;;;;;;24.17;19.37;;;22.60;52.60;;;;;;4803139;54;21067;-36
2021/05/22 19:56:00;;;;;;;24.10;19.67;;;22.60;52.70;;;;;;4806170;54;21541;-40
2021/05/22 20:01:01;;;;;;;24.40;20.95;;;22.60;52.60;;;;;;4799403;54;21686;-36
2021/05/22 20:06:02;;;;;;;24.65;19.73;;;22.60;53.00;;;;;;4804846;54;20971;-37
2021/05/22 20:11:07;;;;;;;24.50;19.85;;;22.60;52.70;;;;;;4824493;54;21008;-38
2021/05/22 20:16:10;;;;;;;21.75;18.05;;;22.60;52.70;;;;;;4819630;54;21004;-35
2021/05/22 20:21:11;;;;;;;22.00;18.77;;;22.60;52.70;;;;;;4823745;54;21007;-38
2021/05/22 20:26:12;;;;;;;23.87;19.52;;;22.60;52.70;;;;;;4806817;54;21466;-37
2021/05/22 20:31:13;;;;;;;22.10;18.90;;;22.60;52.70;;;;;;4824975;54;21013;-36
2021/05/22 20:36:14;;;;;;;21.73;18.70;;;22.60;52.70;;;;;;4795701;54;21549;-38
2021/05/22 20:41:15;;;;;;;22.15;18.58;;;22.60;52.70;;;;;;4794386;58;21035;-38
2021/05/22 20:46:16;;;;;;;21.55;17.60;;;22.60;52.70;;;;;;4867798;54;20987;-36
2021/05/22 20:51:17;;;;;;;22.70;18.60;;;22.60;52.60;;;;;;4815519;54;21059;-36
2021/05/22 20:56:18;;;;;;;23.75;18.95;;;22.60;52.60;;;;;;4821027;54;21905;-35
2021/05/22 21:01:19;;;;;;;25.00;19.67;;;22.60;52.70;;;;;;4818001;54;21058;-36
2021/05/22 21:06:20;;;;;;;21.85;18.08;;;22.60;52.60;;;;;;4794284;58;21454;-34
2021/05/22 21:11:21;;;;;;;21.33;17.35;;;22.60;52.70;;;;;;4807876;54;21015;-37
2021/05/22 21:16:22;;;;;;;22.62;17.73;;;22.60;52.70;;;;;;4816772;54;20991;-35
2021/05/22 21:21:22;;;;;;;22.15;18.58;;;22.60;52.70;;;;;;4805184;54;21464;-32
2021/05/22 21:26:24;;;;;;;20.75;18.30;;;22.60;52.70;;;;;;4834633;54;21046;-39
2021/05/22 21:31:25;;;;;;;21.60;17.48;;;22.60;52.60;;;;;;4808496;54;20991;-35
2021/05/22 21:36:26;;;;;;;20.90;16.60;;;22.60;52.60;;;;;;4817674;54;21059;-34
2021/05/22 21:41:32;;;;;;;21.95;18.17;;;22.60;52.60;;;;;;4807523;54;21022;-38
2021/05/22 21:46:32;;;;;;;20.95;16.77;;;22.60;52.60;;;;;;4795419;58;21267;-38
2021/05/22 21:51:33;;;;;;;22.83;17.55;;;22.60;52.60;;;;;;4815553;54;21094;-39
2021/05/22 21:56:34;;;;;;;21.87;17.05;;;22.60;52.60;;;;;;4816927;54;22592;-36
2021/05/22 22:01:37;;;;;;;21.25;17.33;;;22.60;53.20;;;;;;4794473;58;21416;-40
2021/05/22 22:06:38;;;;;;;19.25;16.58;;;22.60;52.60;;;;;;4835395;54;21473;-38
2021/05/22 22:11:39;;;;;;;21.20;17.00;;;22.60;52.60;;;;;;4824419;54;21019;-37
2021/05/22 22:16:40;;;;;;;22.92;17.48;;;22.60;52.60;;;;;;4796570;54;21016;-36
2021/05/22 22:21:42;;;;;;;19.90;17.12;;;22.60;52.60;;;;;;4794139;58;21019;-38
2021/05/22 22:26:44;;;;;;;19.15;16.52;;;22.60;52.60;;;;;;4797602;54;20995;-37
2021/05/22 22:31:44;;;;;;;22.00;17.15;;;22.60;52.60;;;;;;4795121;58;20997;-38
2021/05/22 22:36:45;;;;;;;19.77;16.12;;;22.60;52.60;;;;;;4817009;54;21511;-35
2021/05/22 22:41:48;;;;;;;19.20;16.52;;;22.60;52.60;;;;;;4793637;58;21015;-40
2021/05/22 22:46:49;;;;;;;20.12;16.33;;;22.60;52.10;;;;;;4834674;54;21530;-39
2021/05/22 22:51:49;;;;;;;19.00;16.15;;;22.60;52.70;;;;;;4806869;54;21030;-40
2021/05/22 22:56:50;;;;;;;18.15;15.52;;;22.60;52.60;;;;;;4804331;54;21012;-38
2021/05/22 23:01:51;;;;;;;18.65;15.98;;;22.60;52.60;;;;;;4806406;54;21473;-40
2021/05/22 23:06:52;;;;;;;20.62;16.52;;;22.60;52.60;;;;;;4808789;54;21604;-38
2021/05/22 23:11:53;;;;;;;18.58;15.98;;;22.60;52.60;;;;;;4794654;58;22381;-39
2021/05/22 23:16:54;;;;;;;17.40;15.40;;;22.60;52.50;;;;;;4794685;58;21059;-40
2021/05/22 23:21:55;;;;;;;19.42;15.43;;;22.60;52.50;;;;;;4819159;54;21050;-38
2021/05/22 23:26:56;;;;;;;19.35;15.45;;;22.60;52.50;;;;;;4835162;54;21536;-39
2021/05/22 23:31:57;;;;;;;17.70;15.13;;;22.60;52.50;;;;;;4809477;54;20991;-37
2021/05/22 23:36:58;;;;;;;18.17;15.48;;;22.60;52.50;;;;;;4804389;54;21015;-39
2021/05/22 23:41:59;;;;;;;18.42;14.93;;;22.60;52.50;;;;;;4793438;58;21485;-37
2021/05/22 23:47:00;;;;;;;16.67;14.07;;;22.60;52.60;;;;;;4802224;54;21027;-37
2021/05/22 23:52:00;;;;;;;18.35;15.18;;;22.60;52.50;;;;;;4806018;54;21022;-37
2021/05/22 23:57:01;;;;;;;19.58;15.40;;;22.60;52.50;;;;;;4793887;58;21026;-38
